Time;durP1;ratioP1;P1;durP2;ratioP2;P2;SDS_P1;SDS_P2;PMS_P1;PMS_P2;Temp;Humidity;BMP_temperature;BMP_pressure;BME280_temperature;BME280_humidity;BME280_pressure;Samples;Min_cycle;Max_cycle;Signal;HPM_P1;HPM_P2
2022/09/12 00:02:13;;;;;;;2.37;2.03;;;12.60;99.90;;;;;;5100763;28;20219;-70
2022/09/12 00:04:40;;;;;;;4.00;2.10;;;12.50;99.90;;;;;;5118172;27;20219;-70
2022/09/12 00:07:06;;;;;;;3.70;1.70;;;12.50;99.90;;;;;;5115137;27;20231;-69
2022/09/12 00:09:33;;;;;;;5.43;2.63;;;12.50;99.90;;;;;;5110354;28;20211;-69
2022/09/12 00:12:00;;;;;;;4.10;2.33;;;12.50;99.90;;;;;;5113320;28;20227;-71
2022/09/12 00:14:26;;;;;;;5.57;2.30;;;12.40;99.90;;;;;;5124159;27;20223;-71
2022/09/12 00:16:58;;;;;;;2.40;2.10;;;12.40;99.90;;;;;;5107235;27;20220;-71
2022/09/12 00:19:25;;;;;;;3.83;2.03;;;12.40;99.90;;;;;;5124027;27;20227;-69
2022/09/12 00:21:52;;;;;;;2.90;2.00;;;12.40;99.90;;;;;;5115966;27;20300;-71
2022/09/12 00:24:19;;;;;;;6.13;2.70;;;12.40;99.90;;;;;;5111724;28;20203;-69
2022/09/12 00:26:45;;;;;;;4.90;2.13;;;12.40;99.90;;;;;;5106422;28;20203;-70
2022/09/12 00:29:16;;;;;;;3.17;2.13;;;12.40;99.90;;;;;;5103303;28;20215;-70
2022/09/12 00:31:43;;;;;;;2.63;1.90;;;12.40;99.90;;;;;;5122136;27;20207;-70
2022/09/12 00:34:11;;;;;;;6.37;2.43;;;12.30;99.90;;;;;;5110460;28;20545;-69
2022/09/12 00:36:39;;;;;;;5.63;2.63;;;12.40;99.90;;;;;;5104831;28;20405;-70
2022/09/12 00:39:07;;;;;;;3.60;2.10;;;12.40;99.90;;;;;;5111551;28;20207;-71
2022/09/12 00:41:36;;;;;;;3.87;2.00;;;12.40;99.90;;;;;;5110669;28;20216;-70
2022/09/12 00:44:43;;;;;;;5.33;2.30;;;12.30;99.90;;;;;;5111444;28;20677;-70
2022/09/12 00:47:14;;;;;;;4.80;2.27;;;12.30;99.90;;;;;;5113423;27;20210;-70
2022/09/12 00:49:47;;;;;;;3.57;2.10;;;12.30;99.90;;;;;;5124672;27;20487;-70
2022/09/12 00:52:18;;;;;;;5.07;2.80;;;12.30;99.90;;;;;;5110055;28;20203;-69
2022/09/12 00:54:50;;;;;;;2.83;2.03;;;12.30;99.90;;;;;;5112716;27;20192;-70
2022/09/12 00:57:18;;;;;;;4.60;2.37;;;12.30;99.90;;;;;;5124662;27;20231;-70
2022/09/12 00:59:49;;;;;;;6.93;2.37;;;12.30;99.90;;;;;;5112189;28;20226;-70
2022/09/12 01:02:16;;;;;;;3.77;2.20;;;12.30;99.90;;;;;;5110408;28;20227;-71
2022/09/12 01:04:46;;;;;;;2.43;1.80;;;12.30;99.90;;;;;;5112276;28;20195;-70
2022/09/12 01:07:14;;;;;;;2.97;1.90;;;12.30;99.90;;;;;;5109644;28;20232;-70
2022/09/12 01:09:43;;;;;;;3.53;2.40;;;12.20;99.90;;;;;;5097707;28;20204;-71
2022/09/12 01:12:12;;;;;;;4.07;2.30;;;12.20;99.90;;;;;;5120847;27;20904;-70
2022/09/12 01:14:39;;;;;;;4.43;2.27;;;12.20;99.90;;;;;;5124792;27;20199;-70
2022/09/12 01:17:06;;;;;;;6.03;2.20;;;12.20;99.90;;;;;;5113257;28;20231;-69
2022/09/12 01:20:05;;;;;;;5.03;2.27;;;12.20;99.90;;;;;;5109219;27;20265;-71
2022/09/12 01:23:06;;;;;;;5.73;2.50;;;12.20;99.90;;;;;;5104089;28;20339;-70
2022/09/12 01:25:44;;;;;;;3.87;2.00;;;12.20;99.90;;;;;;5109243;28;20199;-70
2022/09/12 01:28:34;;;;;;;2.63;2.10;;;12.20;99.90;;;;;;5112125;28;20558;-70
2022/09/12 01:31:06;;;;;;;2.87;2.10;;;12.20;99.90;;;;;;5109185;28;20203;-70
2022/09/12 01:33:47;;;;;;;6.03;2.60;;;12.20;99.90;;;;;;5106778;28;20547;-70
2022/09/12 01:36:37;;;;;;;3.47;2.10;;;12.20;99.90;;;;;;5110274;28;20571;-70
2022/09/12 01:39:05;;;;;;;6.27;2.03;;;12.20;99.90;;;;;;5111354;28;20219;-69
2022/09/12 01:41:45;;;;;;;4.37;2.10;;;12.20;99.90;;;;;;5109955;28;20204;-70
2022/09/12 01:44:20;;;;;;;3.20;2.10;;;12.20;99.90;;;;;;5106352;28;20251;-69
2022/09/12 01:46:55;;;;;;;4.33;2.00;;;12.20;99.90;;;;;;5101145;28;20203;-70
2022/09/12 01:49:25;;;;;;;3.80;2.40;;;12.20;99.90;;;;;;5111199;28;20206;-70
2022/09/12 01:51:58;;;;;;;2.63;2.10;;;12.20;99.90;;;;;;5101503;27;20219;-71
2022/09/12 01:54:31;;;;;;;2.27;2.07;;;12.20;99.90;;;;;;5107950;28;20683;-71
2022/09/12 01:57:03;;;;;;;3.27;2.23;;;12.20;99.90;;;;;;5111726;28;20204;-70
2022/09/12 01:59:34;;;;;;;4.03;2.10;;;12.20;99.90;;;;;;5111209;28;20192;-70
2022/09/12 02:02:07;;;;;;;3.00;2.10;;;12.20;99.90;;;;;;5110777;28;20207;-71
2022/09/12 02:04:40;;;;;;;3.53;2.67;;;12.20;99.90;;;;;;5110293;28;20693;-70
2022/09/12 02:07:14;;;;;;;6.53;2.20;;;12.30;99.90;;;;;;5105856;27;20227;-70
2022/09/12 02:09:45;;;;;;;3.57;2.10;;;12.20;99.90;;;;;;5122914;27;20203;-70
2022/09/12 02:12:16;;;;;;;4.50;2.10;;;12.20;99.90;;;;;;5109829;28;20743;-69
2022/09/12 02:14:47;;;;;;;4.33;2.50;;;12.20;99.90;;;;;;5107924;28;20219;-70
2022/09/12 02:17:19;;;;;;;5.23;2.00;;;12.20;99.90;;;;;;5096999;28;20574;-69
2022/09/12 02:19:51;;;;;;;7.43;2.30;;;12.20;99.90;;;;;;5111581;28;20207;-70
2022/09/12 02:22:21;;;;;;;3.97;2.47;;;12.20;99.90;;;;;;5105771;28;20227;-70
2022/09/12 02:24:52;;;;;;;4.93;2.33;;;12.20;99.90;;;;;;5102942;28;20203;-70
2022/09/12 02:27:24;;;;;;;4.40;2.20;;;12.20;99.90;;;;;;5110681;28;20199;-69
2022/09/12 02:29:51;;;;;;;2.47;2.20;;;12.20;99.90;;;;;;5111100;28;20199;-70
2022/09/12 02:32:27;;;;;;;2.07;1.83;;;12.20;99.90;;;;;;5103534;28;20599;-70
2022/09/12 02:34:59;;;;;;;4.67;2.40;;;12.20;99.90;;;;;;5102422;28;20210;-70
2022/09/12 02:37:38;;;;;;;3.37;2.00;;;12.20;99.90;;;;;;5110547;28;20684;-68
2022/09/12 02:40:05;;;;;;;4.03;2.47;;;12.20;99.90;;;;;;5109532;28;20261;-70
2022/09/12 02:42:32;;;;;;;5.87;2.27;;;12.20;99.90;;;;;;5108100;28;20211;-71
2022/09/12 02:44:59;;;;;;;5.57;2.37;;;12.20;99.90;;;;;;5113160;28;20211;-70
2022/09/12 02:47:33;;;;;;;2.50;2.30;;;12.20;99.90;;;;;;5105668;28;20200;-71
2022/09/12 02:50:00;;;;;;;4.77;2.40;;;12.20;99.90;;;;;;5101811;28;20203;-71
2022/09/12 02:52:27;;;;;;;3.80;2.03;;;12.20;99.90;;;;;;5109726;28;20208;-71
2022/09/12 02:54:55;;;;;;;2.47;2.00;;;12.20;99.90;;;;;;5103867;28;20694;-70
2022/09/12 02:57:22;;;;;;;1.97;1.80;;;12.20;99.90;;;;;;5104771;28;20723;-70
2022/09/12 02:59:53;;;;;;;4.63;2.07;;;12.20;99.90;;;;;;5097900;28;20226;-70
2022/09/12 03:02:30;;;;;;;2.97;2.37;;;12.30;99.90;;;;;;5109498;28;20228;-70
2022/09/12 03:05:18;;;;;;;2.53;2.10;;;12.30;99.90;;;;;;5096385;28;20569;-70
2022/09/12 03:08:12;;;;;;;5.53;2.30;;;12.30;99.90;;;;;;5112741;28;20230;-71
2022/09/12 03:10:51;;;;;;;2.70;2.10;;;12.30;99.90;;;;;;5118445;27;20210;-70
2022/09/12 03:13:23;;;;;;;5.67;2.17;;;12.30;99.90;;;;;;5129560;27;20194;-70
2022/09/12 03:16:01;;;;;;;3.73;2.20;;;12.30;99.90;;;;;;5103111;28;20614;-71
2022/09/12 03:18:41;;;;;;;6.60;2.40;;;12.30;99.90;;;;;;5113518;27;20213;-71
2022/09/12 03:21:14;;;;;;;4.17;2.50;;;12.20;99.90;;;;;;5104532;28;20324;-71
2022/09/12 03:23:51;;;;;;;4.03;2.00;;;12.20;99.90;;;;;;5112730;28;20705;-70
2022/09/12 03:26:27;;;;;;;5.33;2.40;;;12.20;99.90;;;;;;5123863;27;20203;-71
2022/09/12 03:28:55;;;;;;;2.80;2.27;;;12.20;99.90;;;;;;5119316;27;20199;-71
2022/09/12 03:31:22;;;;;;;2.93;2.37;;;12.20;99.90;;;;;;5113026;28;20211;-71
2022/09/12 03:33:50;;;;;;;4.67;3.10;;;12.20;99.90;;;;;;5112515;28;20552;-70
2022/09/12 03:36:21;;;;;;;3.07;2.40;;;12.10;99.90;;;;;;5122362;27;20291;-70
2022/09/12 03:38:48;;;;;;;4.50;2.33;;;12.20;99.90;;;;;;5112012;27;20639;-71
2022/09/12 03:41:15;;;;;;;4.37;2.70;;;12.20;99.90;;;;;;5114487;28;20298;-70
2022/09/12 03:43:42;;;;;;;6.90;2.90;;;12.20;99.90;;;;;;5115083;28;20203;-71
2022/09/12 03:46:09;;;;;;;4.43;2.93;;;12.20;99.90;;;;;;5112368;28;20208;-71
2022/09/12 03:48:35;;;;;;;5.93;2.97;;;12.10;99.90;;;;;;5100304;28;20222;-70
2022/09/12 03:51:05;;;;;;;3.13;2.47;;;12.10;99.90;;;;;;5113658;28;20203;-71
2022/09/12 03:53:32;;;;;;;4.60;3.00;;;12.10;99.90;;;;;;5110382;28;20204;-71
2022/09/12 03:55:59;;;;;;;4.57;2.67;;;12.10;99.90;;;;;;5113144;28;20212;-70
2022/09/12 03:58:30;;;;;;;6.07;3.10;;;12.10;99.90;;;;;;5108163;28;20249;-70
2022/09/12 04:00:57;;;;;;;3.80;2.80;;;12.10;99.90;;;;;;5110064;28;20204;-70
2022/09/12 04:03:24;;;;;;;6.17;3.27;;;12.10;99.90;;;;;;5111372;28;20200;-70
2022/09/12 04:05:50;;;;;;;6.27;3.10;;;12.00;99.90;;;;;;5125810;27;20210;-70
2022/09/12 04:08:18;;;;;;;4.87;3.67;;;12.00;99.90;;;;;;5113507;28;20204;-71
2022/09/12 04:10:45;;;;;;;7.30;3.70;;;12.00;99.90;;;;;;5113096;28;20567;-69
2022/09/12 04:13:12;;;;;;;3.63;3.17;;;12.00;99.90;;;;;;5115961;27;20206;-69
2022/09/12 04:15:39;;;;;;;3.90;3.37;;;12.00;99.90;;;;;;5114434;27;20679;-70
2022/09/12 04:18:05;;;;;;;3.67;3.20;;;11.90;99.90;;;;;;5112714;28;20215;-70
2022/09/12 04:20:32;;;;;;;7.07;3.63;;;12.00;99.90;;;;;;5112674;27;20242;-69
2022/09/12 04:22:59;;;;;;;6.93;3.03;;;11.90;99.90;;;;;;5111561;28;20228;-70
2022/09/12 04:25:28;;;;;;;3.47;2.70;;;11.90;99.90;;;;;;5111470;28;20291;-70
2022/09/12 04:27:54;;;;;;;7.23;3.03;;;11.90;99.90;;;;;;5113707;28;20218;-71
2022/09/12 04:30:21;;;;;;;5.37;3.70;;;11.90;99.90;;;;;;5113311;28;20227;-72
2022/09/12 04:32:48;;;;;;;5.67;3.23;;;11.90;99.90;;;;;;5109232;28;20664;-71
2022/09/12 04:35:15;;;;;;;4.00;3.07;;;11.90;99.90;;;;;;5096762;27;20212;-69
2022/09/12 04:37:41;;;;;;;4.00;3.13;;;11.80;99.90;;;;;;5126357;27;20200;-70
2022/09/12 04:40:09;;;;;;;5.63;3.30;;;11.80;99.90;;;;;;5112073;28;20675;-70
2022/09/12 04:42:37;;;;;;;5.47;3.23;;;11.80;99.90;;;;;;5111010;28;20664;-70
2022/09/12 04:45:05;;;;;;;4.40;3.50;;;11.80;99.90;;;;;;5103925;28;20224;-70
2022/09/12 04:47:31;;;;;;;6.57;3.20;;;11.80;99.90;;;;;;5110683;28;20338;-70
2022/09/12 04:49:58;;;;;;;5.87;3.33;;;11.90;99.90;;;;;;5109997;28;20211;-70
2022/09/12 04:52:25;;;;;;;3.77;3.37;;;11.80;99.90;;;;;;5112010;28;20207;-71
2022/09/12 04:54:52;;;;;;;11.37;3.73;;;11.80;99.90;;;;;;5105644;28;20208;-71
2022/09/12 04:57:18;;;;;;;4.10;3.03;;;11.80;99.90;;;;;;5106682;28;20527;-71
2022/09/12 04:59:47;;;;;;;4.77;3.60;;;11.80;99.90;;;;;;5112361;28;20224;-70
2022/09/12 05:02:13;;;;;;;5.20;3.63;;;11.80;99.90;;;;;;5112583;27;20211;-70
2022/09/12 05:04:40;;;;;;;6.47;3.00;;;11.80;99.90;;;;;;5111197;28;20200;-70
2022/09/12 05:07:07;;;;;;;7.23;4.80;;;11.70;99.90;;;;;;5111672;28;20250;-70
2022/09/12 05:09:33;;;;;;;7.23;3.60;;;11.70;99.90;;;;;;5115628;27;20199;-70
2022/09/12 05:12:00;;;;;;;5.27;3.27;;;11.70;99.90;;;;;;5116165;27;20231;-70
2022/09/12 05:14:27;;;;;;;3.43;3.13;;;11.70;99.90;;;;;;5120411;27;20266;-70
2022/09/12 05:16:58;;;;;;;4.37;3.37;;;11.80;99.90;;;;;;5102367;28;20243;-70
2022/09/12 05:19:25;;;;;;;5.17;3.23;;;11.70;99.90;;;;;;5123024;27;20302;-70
2022/09/12 05:21:52;;;;;;;7.47;3.87;;;11.70;99.90;;;;;;5112752;27;20233;-70
2022/09/12 05:24:19;;;;;;;3.73;3.30;;;11.60;99.90;;;;;;5107164;28;20654;-70
2022/09/12 05:26:46;;;;;;;6.67;3.60;;;11.70;99.90;;;;;;5106174;28;20204;-70
2022/09/12 05:29:13;;;;;;;4.20;3.63;;;11.60;99.90;;;;;;5111448;28;20200;-70
2022/09/12 05:31:40;;;;;;;4.47;3.57;;;11.70;99.90;;;;;;5107566;28;20243;-70
2022/09/12 05:34:09;;;;;;;6.20;3.40;;;11.70;99.90;;;;;;5112076;28;20203;-70
2022/09/12 05:36:37;;;;;;;5.97;3.80;;;11.70;99.90;;;;;;5103211;28;20210;-70
2022/09/12 05:39:04;;;;;;;7.23;3.60;;;11.70;99.90;;;;;;5105263;28;20223;-69
2022/09/12 05:41:32;;;;;;;4.30;3.73;;;11.70;99.90;;;;;;5121161;27;20210;-69
2022/09/12 05:44:00;;;;;;;4.87;3.40;;;11.70;99.90;;;;;;5114173;27;20227;-70
2022/09/12 05:46:29;;;;;;;4.57;3.50;;;11.70;99.90;;;;;;5106233;27;20204;-71
2022/09/12 05:48:57;;;;;;;6.30;3.20;;;11.70;99.90;;;;;;5112970;28;20640;-70
2022/09/12 05:51:27;;;;;;;7.30;3.70;;;11.70;99.90;;;;;;5110598;28;20582;-71
2022/09/12 05:53:56;;;;;;;5.40;3.37;;;11.70;99.90;;;;;;5126089;27;20659;-70
2022/09/12 05:56:25;;;;;;;3.43;3.07;;;11.70;99.90;;;;;;5106945;28;20542;-70
2022/09/12 05:58:54;;;;;;;5.97;3.20;;;11.70;99.90;;;;;;5106443;28;20219;-69
2022/09/12 06:01:21;;;;;;;8.43;4.10;;;11.80;99.90;;;;;;5099427;28;20648;-70
2022/09/12 06:03:49;;;;;;;6.17;3.43;;;11.80;99.90;;;;;;5109688;28;20577;-70
2022/09/12 06:06:17;;;;;;;8.30;3.60;;;11.70;99.90;;;;;;5106220;28;20231;-69
2022/09/12 06:08:48;;;;;;;6.20;3.17;;;11.70;99.90;;;;;;5111107;28;20289;-72
2022/09/12 06:11:16;;;;;;;6.10;3.33;;;11.70;99.90;;;;;;5102909;28;20211;-70
2022/09/12 06:13:43;;;;;;;4.40;3.57;;;11.70;99.90;;;;;;5113995;27;20208;-70
2022/09/12 06:16:12;;;;;;;6.27;4.17;;;11.70;99.90;;;;;;5099721;28;20199;-71
2022/09/12 06:18:40;;;;;;;5.27;4.10;;;11.70;99.90;;;;;;5102887;28;20267;-71
2022/09/12 06:21:09;;;;;;;4.23;3.57;;;11.70;99.90;;;;;;5109857;28;20238;-71
2022/09/12 06:23:36;;;;;;;9.73;3.60;;;11.70;99.90;;;;;;5103788;28;20243;-73
2022/09/12 06:26:05;;;;;;;7.27;3.70;;;11.80;99.90;;;;;;5104793;28;20215;-72
2022/09/12 06:28:34;;;;;;;5.60;3.50;;;11.80;99.90;;;;;;5104249;28;20204;-70
2022/09/12 06:31:04;;;;;;;7.20;3.40;;;11.80;99.90;;;;;;5109959;28;20955;-71
2022/09/12 06:33:32;;;;;;;5.60;3.80;;;11.80;99.90;;;;;;5109261;28;20204;-72
2022/09/12 06:36:07;;;;;;;7.87;3.50;;;11.90;99.90;;;;;;5101716;28;20290;-71
2022/09/12 06:38:34;;;;;;;5.20;3.23;;;11.90;99.90;;;;;;5103008;28;20199;-70
2022/09/12 06:41:05;;;;;;;6.83;3.10;;;11.90;99.90;;;;;;5106020;27;20678;-70
2022/09/12 06:43:32;;;;;;;4.93;3.80;;;11.90;99.90;;;;;;5119452;27;20248;-72
2022/09/12 06:46:00;;;;;;;6.97;3.50;;;12.00;99.90;;;;;;5129493;27;20675;-72
2022/09/12 06:48:27;;;;;;;3.87;3.37;;;12.00;99.90;;;;;;5124620;27;20208;-71
2022/09/12 06:50:58;;;;;;;9.00;3.70;;;12.00;99.90;;;;;;5127076;27;20664;-70
2022/09/12 06:53:26;;;;;;;5.40;3.43;;;12.00;99.90;;;;;;5128334;27;20656;-71
2022/09/12 06:55:57;;;;;;;5.47;3.47;;;12.00;99.90;;;;;;5122867;27;20196;-71
2022/09/12 06:58:25;;;;;;;6.17;4.40;;;12.10;99.90;;;;;;5116042;27;20621;-71
2022/09/12 07:00:52;;;;;;;6.47;3.53;;;12.10;99.90;;;;;;5109201;27;20219;-72
2022/09/12 07:03:19;;;;;;;6.67;3.47;;;12.10;99.90;;;;;;5111547;27;20676;-72
2022/09/12 07:05:46;;;;;;;7.60;4.00;;;12.20;99.90;;;;;;5108123;27;20517;-71
2022/09/12 07:08:13;;;;;;;6.83;3.67;;;12.10;99.90;;;;;;5113980;27;20281;-70
2022/09/12 07:10:39;;;;;;;6.47;4.30;;;12.20;99.90;;;;;;5111584;27;20799;-71
2022/09/12 07:13:06;;;;;;;4.43;3.67;;;12.20;99.90;;;;;;5111122;27;20212;-69
2022/09/12 07:15:36;;;;;;;5.70;3.57;;;12.30;99.90;;;;;;5110355;27;20211;-72
2022/09/12 07:18:03;;;;;;;10.40;4.27;;;12.30;99.90;;;;;;5116035;27;20196;-72
2022/09/12 07:20:32;;;;;;;6.27;3.80;;;12.30;99.90;;;;;;5116553;27;20499;-71
2022/09/12 07:22:58;;;;;;;5.90;4.03;;;12.40;99.90;;;;;;5112485;28;20232;-73
2022/09/12 07:25:26;;;;;;;5.03;3.50;;;12.40;99.90;;;;;;5110987;28;20203;-70
2022/09/12 07:27:54;;;;;;;7.60;4.30;;;12.50;99.90;;;;;;5112182;27;20212;-73
2022/09/12 07:30:21;;;;;;;6.20;3.47;;;12.40;99.90;;;;;;5126207;27;20209;-74
2022/09/12 07:32:52;;;;;;;5.73;3.57;;;12.40;99.90;;;;;;5110896;27;20587;-74
2022/09/12 07:35:19;;;;;;;5.30;3.67;;;12.50;99.90;;;;;;5100000;27;20695;-71
2022/09/12 07:37:45;;;;;;;5.53;3.60;;;12.50;99.90;;;;;;5108260;27;20226;-71
2022/09/12 07:40:12;;;;;;;9.90;3.90;;;12.50;99.90;;;;;;5113576;27;20591;-71
2022/09/12 07:42:39;;;;;;;8.40;3.67;;;12.60;99.90;;;;;;5129522;27;20202;-73
2022/09/12 07:45:06;;;;;;;5.37;3.63;;;12.60;99.90;;;;;;5120958;27;20212;-72
2022/09/12 07:47:33;;;;;;;6.53;3.60;;;12.60;99.90;;;;;;5126697;27;20200;-73
2022/09/12 07:50:01;;;;;;;5.13;3.77;;;12.70;99.90;;;;;;5132125;27;20199;-72
2022/09/12 07:52:28;;;;;;;6.90;3.80;;;12.70;99.90;;;;;;5118607;27;20208;-73
2022/09/12 07:54:55;;;;;;;7.20;3.87;;;12.70;99.90;;;;;;5108949;27;20207;-74
2022/09/12 07:57:21;;;;;;;4.23;3.50;;;12.70;99.90;;;;;;5119224;27;20219;-74
2022/09/12 07:59:48;;;;;;;9.73;3.73;;;12.80;99.90;;;;;;5126644;27;20218;-73
2022/09/12 08:02:15;;;;;;;6.67;3.77;;;12.80;99.90;;;;;;5106119;28;20207;-71
2022/09/12 08:04:42;;;;;;;5.30;3.93;;;12.90;99.90;;;;;;5117562;27;20219;-76
2022/09/12 08:07:10;;;;;;;7.00;3.53;;;12.90;99.90;;;;;;5106680;28;20232;-75
2022/09/12 08:09:37;;;;;;;6.63;3.87;;;12.90;99.90;;;;;;5108602;28;20214;-73
2022/09/12 08:12:04;;;;;;;8.00;4.13;;;12.90;99.90;;;;;;5128963;27;20195;-71
2022/09/12 08:14:31;;;;;;;8.43;4.43;;;13.00;99.90;;;;;;5118305;27;20200;-69
2022/09/12 08:16:58;;;;;;;6.87;3.70;;;12.90;99.90;;;;;;5109818;28;20570;-70
2022/09/12 08:19:25;;;;;;;7.97;3.73;;;13.10;99.90;;;;;;5109683;28;20614;-70
2022/09/12 08:21:51;;;;;;;6.40;3.40;;;13.10;99.90;;;;;;5110989;28;20604;-72
2022/09/12 08:24:20;;;;;;;6.87;3.73;;;13.20;99.90;;;;;;5109014;28;20215;-71
2022/09/12 08:26:46;;;;;;;14.23;3.63;;;13.30;99.90;;;;;;5107113;27;20204;-71
2022/09/12 08:29:13;;;;;;;8.20;3.67;;;13.50;99.90;;;;;;5111537;27;20299;-71
2022/09/12 08:31:41;;;;;;;9.60;3.93;;;13.40;99.90;;;;;;5111320;27;20223;-71
2022/09/12 08:34:08;;;;;;;6.87;4.00;;;13.50;99.90;;;;;;5101196;27;20640;-70
2022/09/12 08:36:35;;;;;;;5.87;3.80;;;13.50;99.90;;;;;;5119269;27;20196;-74
2022/09/12 08:39:05;;;;;;;9.47;3.70;;;13.60;99.90;;;;;;5108780;27;20548;-72
2022/09/12 08:41:35;;;;;;;6.47;3.30;;;13.60;99.90;;;;;;5108918;27;20200;-72
2022/09/12 08:44:23;;;;;;;12.40;4.30;;;13.60;99.90;;;;;;5113473;27;20227;-70
2022/09/12 08:47:04;;;;;;;8.07;4.23;;;13.70;99.90;;;;;;5113161;27;20206;-72
2022/09/12 08:49:33;;;;;;;7.80;3.80;;;13.70;99.90;;;;;;5118758;27;20196;-71
2022/09/12 08:52:06;;;;;;;8.10;3.07;;;14.00;99.90;;;;;;5121445;27;20199;-71
2022/09/12 08:54:33;;;;;;;6.77;3.20;;;13.80;99.90;;;;;;5107485;27;20225;-71
2022/09/12 08:57:04;;;;;;;7.93;4.20;;;13.80;99.90;;;;;;5113489;27;20210;-72
2022/09/12 08:59:37;;;;;;;6.73;3.93;;;13.90;99.90;;;;;;5118236;27;20664;-72
2022/09/12 09:02:14;;;;;;;8.33;3.93;;;13.90;99.90;;;;;;5121421;27;20195;-72
2022/09/12 09:04:50;;;;;;;12.10;4.80;;;13.90;99.90;;;;;;5117370;27;20191;-71
2022/09/12 09:07:45;;;;;;;7.13;4.10;;;13.90;99.90;;;;;;5116672;27;20649;-72
2022/09/12 09:10:23;;;;;;;5.23;3.20;;;13.90;99.90;;;;;;5111045;27;20208;-72
2022/09/12 09:12:57;;;;;;;9.70;3.60;;;13.90;99.90;;;;;;5113715;27;20203;-73
2022/09/12 09:15:43;;;;;;;6.10;3.50;;;14.00;99.90;;;;;;5124713;27;20273;-71
2022/09/12 09:18:16;;;;;;;8.87;3.43;;;14.00;99.90;;;;;;5098358;28;20285;-71
2022/09/12 09:20:49;;;;;;;9.27;3.43;;;14.10;99.90;;;;;;5098452;28;20235;-71
2022/09/12 09:23:23;;;;;;;5.17;3.57;;;14.10;99.90;;;;;;5111931;28;20223;-73
2022/09/12 09:25:55;;;;;;;8.70;3.73;;;14.10;99.90;;;;;;5097956;28;20570;-71
2022/09/12 09:28:31;;;;;;;5.93;3.10;;;14.10;99.90;;;;;;5111578;27;20203;-73
2022/09/12 09:30:58;;;;;;;6.87;3.23;;;14.10;99.90;;;;;;5114775;27;20658;-72
2022/09/12 09:33:30;;;;;;;5.73;3.40;;;14.20;99.90;;;;;;5114858;27;20379;-73
2022/09/12 09:36:04;;;;;;;5.90;3.40;;;14.30;99.90;;;;;;5107167;28;20215;-74
2022/09/12 09:38:45;;;;;;;9.67;3.10;;;14.30;99.90;;;;;;5113112;27;20199;-73
2022/09/12 09:41:37;;;;;;;5.93;3.23;;;14.40;99.90;;;;;;5121713;27;20207;-73
2022/09/12 09:44:05;;;;;;;4.27;3.13;;;14.40;99.90;;;;;;5107007;27;20204;-71
2022/09/12 09:46:32;;;;;;;7.57;3.10;;;14.40;99.90;;;;;;5117215;27;20226;-72
2022/09/12 09:49:02;;;;;;;6.17;3.53;;;14.40;99.90;;;;;;5122117;27;20203;-71
2022/09/12 09:51:34;;;;;;;5.03;3.00;;;14.40;99.90;;;;;;5118993;27;20211;-73
2022/09/12 09:54:11;;;;;;;5.17;3.00;;;14.40;99.90;;;;;;5120315;27;20286;-74
2022/09/12 09:56:39;;;;;;;6.07;3.57;;;14.50;99.90;;;;;;5118629;27;20248;-74
2022/09/12 09:59:11;;;;;;;5.00;3.30;;;14.50;99.90;;;;;;5108191;28;20281;-74
2022/09/12 10:01:45;;;;;;;4.77;3.07;;;14.50;99.90;;;;;;5103547;27;20219;-74
2022/09/12 10:04:19;;;;;;;4.93;2.70;;;14.60;99.90;;;;;;5120733;27;20203;-73
2022/09/12 10:06:46;;;;;;;6.43;3.13;;;14.70;99.90;;;;;;5104686;27;20270;-72
2022/09/12 10:09:22;;;;;;;8.37;3.33;;;14.70;99.90;;;;;;5108286;27;20290;-75
2022/09/12 10:11:50;;;;;;;5.37;3.20;;;14.70;99.90;;;;;;5106333;28;20318;-72
2022/09/12 10:14:36;;;;;;;6.57;3.40;;;14.60;99.90;;;;;;5107353;27;20572;-71
2022/09/12 10:17:23;;;;;;;3.43;2.97;;;14.60;99.90;;;;;;5108706;28;20222;-73
2022/09/12 10:19:52;;;;;;;3.30;2.53;;;14.50;99.90;;;;;;5110485;28;20226;-73
2022/09/12 10:22:21;;;;;;;8.70;4.07;;;14.50;99.90;;;;;;5098948;28;20280;-73
2022/09/12 10:24:51;;;;;;;10.20;3.70;;;14.50;99.90;;;;;;5105683;28;20208;-71
2022/09/12 10:27:21;;;;;;;3.23;2.93;;;14.40;99.90;;;;;;5107431;28;20210;-72
2022/09/12 10:29:53;;;;;;;7.13;3.10;;;14.40;99.90;;;;;;5112748;28;20207;-72
2022/09/12 10:32:28;;;;;;;8.20;2.93;;;14.40;99.90;;;;;;5112033;28;20683;-74
2022/09/12 10:34:58;;;;;;;7.13;2.80;;;14.40;99.90;;;;;;5105012;28;20210;-76
2022/09/12 10:37:30;;;;;;;11.13;3.60;;;14.40;99.90;;;;;;5108135;28;20208;-75
2022/09/12 10:39:59;;;;;;;6.57;3.27;;;14.40;99.90;;;;;;5102663;28;20213;-75
2022/09/12 10:42:45;;;;;;;5.47;3.10;;;14.40;99.90;;;;;;5113962;28;20387;-76
2022/09/12 10:45:27;;;;;;;5.97;2.73;;;14.40;99.90;;;;;;5103532;28;20192;-75
2022/09/12 10:47:57;;;;;;;6.40;3.07;;;14.40;99.90;;;;;;5111760;28;20222;-75
2022/09/12 10:50:27;;;;;;;4.57;3.07;;;14.40;99.90;;;;;;5113242;28;20204;-75
2022/09/12 10:52:55;;;;;;;4.13;3.20;;;14.40;99.90;;;;;;5105508;28;20215;-75
2022/09/12 10:55:29;;;;;;;5.60;3.07;;;14.40;99.90;;;;;;5111635;28;20204;-76
2022/09/12 10:58:16;;;;;;;3.80;2.93;;;14.30;99.90;;;;;;5108774;28;20199;-75
2022/09/12 11:00:50;;;;;;;6.43;2.87;;;14.40;99.90;;;;;;5099787;28;20624;-75
2022/09/12 11:03:24;;;;;;;5.47;3.07;;;14.40;99.90;;;;;;5108792;28;20210;-75
2022/09/12 11:05:57;;;;;;;3.73;3.10;;;14.40;99.90;;;;;;5107675;28;20591;-76
2022/09/12 11:08:59;;;;;;;6.53;3.10;;;14.30;99.90;;;;;;5099551;28;20212;-76
2022/09/12 11:11:45;;;;;;;4.90;3.07;;;14.40;99.90;;;;;;5107590;28;20200;-76
2022/09/12 11:14:23;;;;;;;11.27;3.33;;;14.40;99.90;;;;;;5120291;28;20209;-75
2022/09/12 11:16:58;;;;;;;7.50;3.87;;;14.40;99.90;;;;;;5111476;28;20660;-75
2022/09/12 11:19:37;;;;;;;5.50;3.57;;;14.40;99.90;;;;;;5118780;28;20210;-75
2022/09/12 11:22:20;;;;;;;5.53;3.60;;;14.50;99.90;;;;;;5105967;28;20239;-76
2022/09/12 11:25:12;;;;;;;6.83;3.30;;;14.60;99.90;;;;;;5103756;28;20589;-74
2022/09/12 11:27:52;;;;;;;12.43;3.60;;;14.70;99.90;;;;;;5105197;28;20215;-76
2022/09/12 11:30:19;;;;;;;5.87;3.00;;;14.90;99.90;;;;;;5114183;28;20211;-71
2022/09/12 11:33:07;;;;;;;5.93;3.33;;;15.00;99.90;;;;;;5114700;28;20245;-72
2022/09/12 11:35:35;;;;;;;4.00;3.13;;;15.20;99.90;;;;;;5112629;27;20192;-73
2022/09/12 11:38:21;;;;;;;5.60;3.27;;;15.30;99.90;;;;;;5114077;28;20215;-73
2022/09/12 11:40:53;;;;;;;6.13;3.07;;;15.40;99.90;;;;;;5124388;27;20216;-76
2022/09/12 11:43:31;;;;;;;4.93;2.63;;;15.30;99.90;;;;;;5106688;28;20304;-74
2022/09/12 11:46:02;;;;;;;3.30;2.53;;;15.30;99.90;;;;;;5108866;28;20277;-75
2022/09/12 11:48:43;;;;;;;6.03;2.90;;;15.20;99.90;;;;;;5105853;28;20218;-75
2022/09/12 11:51:18;;;;;;;4.27;3.07;;;15.20;99.90;;;;;;5107415;27;20212;-76
2022/09/12 11:53:56;;;;;;;5.33;2.50;;;15.10;99.90;;;;;;5105551;27;20712;-74
2022/09/12 11:56:23;;;;;;;3.97;2.80;;;15.10;99.90;;;;;;5111818;28;20579;-77
2022/09/12 11:58:55;;;;;;;5.33;2.90;;;15.00;99.90;;;;;;5128417;27;20203;-74
2022/09/12 12:01:27;;;;;;;3.67;2.40;;;15.00;99.90;;;;;;5113586;27;20232;-74
2022/09/12 12:03:56;;;;;;;5.33;3.27;;;15.00;99.90;;;;;;5108165;28;20219;-73
2022/09/12 12:06:30;;;;;;;5.57;2.83;;;14.80;99.90;;;;;;5107763;28;20587;-75
2022/09/12 12:08:57;;;;;;;4.90;2.90;;;14.90;99.90;;;;;;5114404;28;20204;-76
2022/09/12 12:11:29;;;;;;;3.50;2.80;;;14.90;99.90;;;;;;5115753;28;20218;-72
2022/09/12 12:13:59;;;;;;;5.13;2.60;;;14.90;99.90;;;;;;5118049;27;20674;-71
2022/09/12 12:16:29;;;;;;;6.73;2.73;;;14.90;99.90;;;;;;5111666;27;20215;-71
2022/09/12 12:18:59;;;;;;;5.93;3.20;;;15.00;99.90;;;;;;5106657;28;20587;-68
2022/09/12 12:21:39;;;;;;;8.47;3.43;;;15.00;99.90;;;;;;5105804;28;20593;-71
2022/09/12 12:24:17;;;;;;;24.00;8.20;;;15.00;99.90;;;;;;5106436;28;20280;-70
2022/09/12 12:26:56;;;;;;;4.67;3.30;;;15.00;99.90;;;;;;5108472;28;20200;-69
2022/09/12 12:29:42;;;;;;;4.10;3.00;;;14.90;99.90;;;;;;5102790;28;20659;-73
2022/09/12 12:32:25;;;;;;;4.33;3.20;;;14.90;99.90;;;;;;5107181;27;20450;-71
2022/09/12 12:35:20;;;;;;;10.07;4.73;;;14.90;99.90;;;;;;5101199;28;20215;-74
2022/09/12 12:37:57;;;;;;;5.07;3.23;;;15.00;99.90;;;;;;5105578;28;20685;-74
2022/09/12 12:40:27;;;;;;;8.07;4.67;;;15.10;99.90;;;;;;5102214;27;20207;-70
2022/09/12 12:43:06;;;;;;;6.93;3.20;;;15.10;99.90;;;;;;5105250;27;20204;-73
2022/09/12 12:46:09;;;;;;;5.90;3.33;;;15.20;99.90;;;;;;5109847;28;20271;-74
2022/09/12 12:49:07;;;;;;;8.37;3.70;;;15.20;99.90;;;;;;5116719;27;20202;-74
2022/09/12 12:51:55;;;;;;;6.60;3.47;;;15.20;99.90;;;;;;5110956;27;20571;-73
2022/09/12 12:54:51;;;;;;;3.80;2.40;;;15.20;99.90;;;;;;5100661;28;20216;-73
2022/09/12 12:57:27;;;;;;;4.20;2.70;;;15.10;99.90;;;;;;5099626;28;20208;-73
2022/09/12 12:59:57;;;;;;;9.60;2.70;;;15.10;99.90;;;;;;5119455;27;20373;-72
2022/09/12 13:02:29;;;;;;;4.50;2.40;;;15.10;99.90;;;;;;5106000;27;20328;-73
2022/09/12 13:04:58;;;;;;;6.93;2.83;;;15.10;99.90;;;;;;5107104;28;20281;-72
2022/09/12 13:07:31;;;;;;;3.00;2.20;;;15.10;99.90;;;;;;5110268;27;20228;-72
2022/09/12 13:09:59;;;;;;;4.20;2.77;;;15.20;99.90;;;;;;5113823;27;20214;-72